Skip to main content

NOAA/GLERL Met Station at Chicago, IL

Previous 3 Hours (2 minute increments)
See also Previous 5 Days (top of hour)
Jump down to Data
Switch to [English][Metric]
Zoom: Click and drag, Pan: shift-click and drag, Unzoom: double-click, Unzoom All




See also 1-day windrose plot


NOAA/GLERL Met Station at Chicago, IL

Previous 3 Hours (2 minute increments)
See also Previous 5 Days (top of hour only)
Jump up to Graphs
Switch to [English][Metric]
                  Wind  Wind  Wind   Air   Dew   Rel
                   Spd   Gst   Dir  Temp    Pt   Hum
YYYY-MM-DD   CDT   kts   kts   deg     F     F     %
2022-05-19 22:36  20.8  22.4   188  72.7  59.1  61.8
2022-05-19 22:34  21.0  22.7   190  72.3  59.1  62.7
2022-05-19 22:32  19.2  21.4   191  71.8  59.1  63.9
2022-05-19 22:30  19.6  20.6   189  72.1  59.1  63.1
2022-05-19 22:28  19.6  21.4   187  71.4  59.1  64.7
2022-05-19 22:26  19.6  20.4   187  71.1  59.3  66.0
2022-05-19 22:24  19.8  21.8   185  70.7  59.4  67.0
2022-05-19 22:22  19.6  21.0   185  70.2  59.2  67.9
2022-05-19 22:20  19.8  21.6   183  70.2  59.2  67.9
2022-05-19 22:18  20.2  21.8   181  69.6  59.3  69.2
2022-05-19 22:16  19.8  20.6   179  70.3  59.3  67.7
2022-05-19 22:14  20.4  21.2   179  70.3  59.7  68.6
2022-05-19 22:12  20.2  22.4   177  71.1  59.6  66.7
2022-05-19 22:10  20.2  22.9   176  70.7  59.7  67.7
2022-05-19 22:08  19.6  21.2   176  70.5  59.8  68.3
2022-05-19 22:06  19.6  21.6   177  70.9  59.6  67.0
2022-05-19 22:04  20.0  21.6   177  71.4  59.8  66.4
2022-05-19 22:02  21.2  22.7   176  71.8  59.8  65.6
2022-05-19 22:00  21.6  22.6   177  71.8  59.9  65.7
2022-05-19 21:58  21.4  22.4   179  71.6  59.9  66.2
2022-05-19 21:56  21.8  23.7   180  72.5  60.0  64.4
2022-05-19 21:54  22.2  24.1   180  71.8  60.6  67.3
2022-05-19 21:52  21.6  24.5   180  71.2  60.6  68.7
2022-05-19 21:50  22.2  23.5   180  72.3  60.6  66.2
2022-05-19 21:48  23.1  24.1   179  72.7  61.4  67.2
2022-05-19 21:46  23.5  25.3   177  71.8  61.3  69.2
2022-05-19 21:44  21.4  22.4   177  70.9  61.3  71.2
2022-05-19 21:42  20.8  22.2   175  70.7  61.4  72.0
2022-05-19 21:40  21.6  23.5   176  71.8  61.7  70.2
2022-05-19 21:38  22.6  23.9   175  72.0  62.2  71.0
2022-05-19 21:36  22.2  22.9   174  72.1  62.5  71.4
2022-05-19 21:34  22.4  23.5   175  71.4  62.3  72.6
2022-05-19 21:32  22.6  23.7   174  71.2  62.3  73.1
2022-05-19 21:30  22.9  25.3   175  71.2  62.3  73.0
2022-05-19 21:28  22.7  25.9   173  70.9  62.0  73.1
2022-05-19 21:26  24.1  25.5   173  71.8  62.1  71.2
2022-05-19 21:24  24.9  25.9   173  71.8  62.3  71.6
2022-05-19 21:22  24.7  25.9   173  72.0  62.5  71.6
2022-05-19 21:20  23.7  25.1   170  71.4  62.1  72.1
2022-05-19 21:18  24.5  25.7   171  71.2  62.0  72.1
2022-05-19 21:16  24.9  26.0   173  72.0  62.1  70.8
2022-05-19 21:14  24.9  26.8   173  71.2  62.0  72.2
2022-05-19 21:12  24.3  25.7   172  71.2  61.8  71.6
2022-05-19 21:10  24.1  26.0   172  71.4  61.6  70.7
2022-05-19 21:08  24.5  26.8   171  71.4  61.5  70.6
2022-05-19 21:06  24.9  26.0   171  71.8  61.4  69.5
2022-05-19 21:04  25.7  26.8   171  72.1  61.5  68.8
2022-05-19 21:02  26.2  29.0   172  72.7  61.6  67.7
2022-05-19 21:00  25.9  26.8   172  72.9  61.5  67.2
2022-05-19 20:58  26.6  28.0   172  73.4  61.6  66.2
2022-05-19 20:56  26.6  27.4   171  73.2  61.4  66.1
2022-05-19 20:54  27.2  28.2   171  73.0  61.5  66.7
2022-05-19 20:52  26.8  28.4   171  72.3  60.9  67.0
2022-05-19 20:50  25.9  26.4   172  72.9  61.0  65.9
2022-05-19 20:48  24.9  26.8   171  72.7  60.8  65.8
2022-05-19 20:46  26.0  27.8   169  72.7  60.7  65.6
2022-05-19 20:44  26.8  29.4   170  73.2  60.7  64.4
2022-05-19 20:42  25.7  27.8   171  72.1  60.4  66.0
2022-05-19 20:40  25.1  26.6   172  73.0  60.3  63.9
2022-05-19 20:38  25.9  27.4   171  73.0  60.3  63.8
2022-05-19 20:36  25.3  28.0   172  72.5  60.0  64.3
2022-05-19 20:34  25.7  26.6   173  73.2  60.0  62.8
2022-05-19 20:32  26.6  28.6   173  73.9  60.1  61.5
2022-05-19 20:30  26.2  27.4   173  74.3  60.1  60.7
2022-05-19 20:28  26.4  27.6   173  73.8  60.0  61.7
2022-05-19 20:26  26.2  27.0   173  74.1  60.0  60.8
2022-05-19 20:24  25.9  26.6   173  73.9  59.9  61.0
2022-05-19 20:22  26.0  27.8   174  73.9  59.8  60.9
2022-05-19 20:20  26.0  27.4   174  74.1  59.9  60.6
2022-05-19 20:18  25.1  27.0   173  73.4  59.9  62.1
2022-05-19 20:16  23.5  25.5   172  73.6  59.5  60.9
2022-05-19 20:14  24.3  26.6   172  73.4  59.5  61.3
2022-05-19 20:12  24.5  26.8   172  73.4  59.4  61.0
2022-05-19 20:10  22.9  24.9   170  72.3  59.0  62.5
2022-05-19 20:08  21.8  23.7   169  72.0  58.8  62.7
2022-05-19 20:06  20.6  23.5   169  71.2  58.4  63.5
2022-05-19 20:04  20.2  22.0   168  71.4  58.2  62.6
2022-05-19 20:02  19.8  21.0   168  71.4  57.9  61.9
2022-05-19 20:00  20.6  23.7   165  72.0  57.7  60.4
2022-05-19 19:58  20.4  23.1   164  71.6  57.5  60.7
2022-05-19 19:56  20.0  22.6   163  70.5  57.3  62.5
2022-05-19 19:54  18.1  21.2   157  70.2  56.9  62.3
2022-05-19 19:52  20.4  23.3   158  71.1  56.8  60.1
2022-05-19 19:50  19.2  22.6   153  70.5  56.6  60.8
2022-05-19 19:48  19.2  21.8   154  71.4  56.4  58.5
2022-05-19 19:46  19.8  21.6   153  71.2  56.1  58.4
2022-05-19 19:44  18.5  20.4   152  71.4  55.9  57.5
2022-05-19 19:42  19.2  20.4   152  72.5  55.7  55.1
2022-05-19 19:40  19.2  21.2   151  73.0  55.6  53.8
2022-05-19 19:38  19.4  21.4   148  73.8  55.4  52.2
2022-05-19 19:36  18.7  20.0   148  74.3  55.3  51.0